Methow, WA

1:30 AM PDT on August 22, 2014 (GMT -0700)
The Highlands | Change Station
CLOSE
Current Station
Personal Weather Station
Location: Chelan, WA
Elevation: 1610 ft
Nearby Weather Stations
Active Advisory: Flash Flood Watch

Elev 1610 ft 47.86 °N, 120.04 °W | Updated 12 minutes ago

Clear
Clear
63.4 °F
Feels Like 63.4 °F
N
5.0
Wind Variable Wind from East
Gusts 5.0 mph

Today
High -- | Low -- °F
--% Chance of Precip.
Yesterday
High -- | Low -- °F
Precip. -- in
6:04 AM 8:00 PM
Waning Crescent, 9% visible
Pressure 29.96 in
Visibility 10.0 miles
Clouds Clear
Dew Point 52 °F
Humidity 67%
Rainfall 0.00 in
Snow Depth Not available.
UV 0 out of 12
Pollen 2.60 out of 12
Air Quality Not available.
Flu Activity Not available.
METAR KOMK 220753Z AUTO 36012KT 10SM CLR 14/13 A2998 RMK AO2 RAE01 SLP146 P0000 T01390128 402830139

More Conditions Fewer Conditions

Pressure 29.96 in
Visibility 10.0 miles
Clouds Clear
Dew Point 52 °F
Humidity 67%
Rainfall 0.00 in
Snow Depth Not available.
UV 0 out of 12
Pollen 2.60 out of 12
Air Quality Not available.
Flu Activity Not available.
METAR KOMK 220753Z AUTO 36012KT 10SM CLR 14/13 A2998 RMK AO2 RAE01 SLP146 P0000 T01390128 402830139

More Conditions Fewer Conditions

10-Day Weather Forecast

Almanac

Astronomy

Aug. 22, 2014 Rise Set
Actual Time 6:04 AM PDT 8:00 PM PDT
Civil Twilight 5:31 AM PDT 8:33 PM PDT
Nautical Twilight 4:50 AM PDT 9:14 PM PDT
Astronomical Twilight 4:04 AM PDT 9:59 PM PDT
Moon 3:26 AM PDT 6:15 PM PDT
Length of Visible Light 15h 02m
Length of Day
13h 55m
Tomorrow will be 3m 16s shorter.
Waning Crescent, 9% of the Moon is Illuminated
Today
Waning Crescent
Aug 25
New
Sep 2
First Quarter
Sep 8
Full
Sep 15
Last Quarter

Today's Extremes

State Highs State Lows

Community

WunderPhotos

Upload Photos

1,746,144 photos uploaded!

Nearby

Snow Depth

Station Depth Elevation
Lyman Lake 0 in 5900 ft
Rainy Pass 0 in 4780 ft
Park Creek Ridge 0 in 4600 ft
Moses Mountain 1 in 5300 ft
Harts Pass 0 in 6500 ft

Earthquake Activity

City Distance Mag. Time & Date
No recent earthquake activity has been reported nearby.
Minimum magnitude displayed is 2.5.

Coastal Water Temperatures

Place Temperature
No Stations Reporting

Nearby Weather Stations